Las Nutrias, New Mexico
Current Conditions -  °F | °C
As of 7:55 AM on Monday 24 Nov 2014 (Local Time) from KE80 Reporting Station
Clear Clear  
Wind Chill: 28°   Ceiling: Unl
Heat Index: 28°   Visibility: 10mi
Dew Point: 12°   Wind: 0mph
Humidity: 51%   Direction: NA
Pressure: 30.18"   Gusts: NA
Location:  34.445°N, 106.689°W
Report Text: KE80 241455Z AUTO 00000KT 10SM CLR M02/M11 A3018 RMK AO2 T10231113
Loading
Personal Weather Stations






























Interactive Weather Map New forecast layout! Learn more

10-Day Weather Forecast

Advertisements
Track Severe Weather on mobile